Alturas, CA

9:49 PM PST on December 08, 2016 (GMT -0800)
Alturas Municipal | | Change Station
Active Advisory: High Wind Warning

Elev 4373 ft 41.49 °N, 120.56 °W | Updated 54 minutes ago

Overcast
Overcast
35 °F
Feels Like 31 °F
N
5
Wind Variable Wind from NW

Today
High -- | Low -- °F
--% Chance of Precip.
Yesterday
High -- | Low -- °F
Precip. -- in
Pressure 30.11 in
Visibility 10.0 miles
Clouds Few 1900 ft
Overcast 11000 ft
Windchill 31 °F
Dew Point 34 °F
Humidity 96%
Rainfall 0.15 in
Snow Depth Not available.
7:16 AM 4:32 PM
Waxing Gibbous, 70% visible
METAR KAAT 090455Z AUTO 31004KT 10SM FEW019 OVC110 02/01 A3007 RMK AO2 RAE05 SLP196 P0000 T00170011 TSNO
Pressure 30.11 in
Visibility 10.0 miles
Clouds Few 1900 ft
Overcast 11000 ft
Windchill 31 °F
Dew Point 34 °F
Humidity 96%
Rainfall 0.15 in
Snow Depth Not available.
7:16 AM 4:32 PM
Waxing Gibbous, 70% visible
METAR KAAT 090455Z AUTO 31004KT 10SM FEW019 OVC110 02/01 A3007 RMK AO2 RAE05 SLP196 P0000 T00170011 TSNO

10-Day Weather Forecast

Almanac

Astronomy

Dec. 08, 2016 Rise Set
Actual Time
Civil Twilight
Nautical Twilight
Astronomical Twilight
Moon
Length of Visible Light
Length of Day
Tomorrow will be .
, % of the Moon is Illuminated

Today's Extremes

State Highs State Lows

Community

WunderPhotos

Upload Photos

1,956,370 photos uploaded!

WunderBlog® & News

Nearby

Air Quality

  Air Quality AQ Index Pollutant
Not available.

Snow Depth

Station Depth Elevation

Earthquake Activity

City Distance Mag. Time & Date
Minimum magnitude displayed is 2.5.

Coastal Water Temperatures

Place Temperature

Stations

Nearby Weather Stations

Station Location Temp. Windchill Dew Point Humidity Wind Precip. Elev Updated Type
                   

Watches & Warnings

High Wind Warning
Issued: 2:38 PM PST Dec. 8, 2016 – National Weather Service

... High Wind Warning remains in effect until 1 am PST Friday...

* winds... southwest 30 to 40 mph with gusts to 60 mph.

* Timing... this afternoon through late tonight.

* Locations include... Highway 31 between Paisley and Summer
Lake... Highway 299 near Cedar Pass... Highway 140 east of
Lakeview and the higher terrain of the Fremont Winema Forest
near and west of Summer Lake as well as the Warner Mountains.

* Impacts... potentially hazardous driving conditions are
expected... especially for lightweight and high-profile
vehicles. Increased risk for downed trees and power lines.
Disruption of outdoor activities. Unsecured objects may be
lost or damaged.

Precautionary/preparedness actions...

A High Wind Warning means a hazardous high wind event is expected
or occurring. Sustained wind speeds of at least 40 mph or gusts
of 58 mph or more can lead to property damage. Travel will be
impacted... especially for high profile vehicles.